Time;durP1;ratioP1;P1;durP2;ratioP2;P2;SDS_P1;SDS_P2;PMS_P1;PMS_P2;Temp;Humidity;BMP_temperature;BMP_pressure;BME280_temperature;BME280_humidity;BME280_pressure;Samples;Min_cycle;Max_cycle;Signal;HPM_P1;HPM_P2
2022/01/24 00:01:53;;;;;;;1.60;1.50;;;16.30;91.40;;;;;;5093787;28;20179;-15
2022/01/24 00:04:21;;;;;;;1.63;1.50;;;16.30;91.30;;;;;;5094676;28;20203;-14
2022/01/24 00:06:47;;;;;;;1.70;1.60;;;16.30;91.20;;;;;;5076374;28;20535;-16
2022/01/24 00:09:13;;;;;;;1.80;1.40;;;16.40;91.10;;;;;;5093267;28;20532;-15
2022/01/24 00:11:45;;;;;;;1.73;1.53;;;16.30;91.00;;;;;;5072864;28;20630;-15
2022/01/24 00:17:17;;;;;;;1.37;1.27;;;16.40;91.00;;;;;;5091975;28;20174;-16
2022/01/24 00:27:57;;;;;;;1.40;1.30;;;16.40;90.70;;;;;;5093937;28;20175;-14
2022/01/24 00:30:23;;;;;;;1.40;1.30;;;16.40;90.70;;;;;;5094781;28;20172;-16
2022/01/24 00:32:49;;;;;;;2.37;1.40;;;16.40;90.60;;;;;;5074509;28;20338;-15
2022/01/24 00:35:15;;;;;;;1.43;1.33;;;16.40;90.50;;;;;;5092130;28;20696;-15
2022/01/24 00:37:40;;;;;;;1.37;1.27;;;16.40;90.50;;;;;;5092261;28;20178;-15
2022/01/24 00:40:08;;;;;;;1.83;1.40;;;16.40;90.50;;;;;;5074964;28;20255;-15
2022/01/24 00:45:30;;;;;;;1.63;1.43;;;16.40;90.50;;;;;;5093108;28;20306;-14
2022/01/24 00:55:59;;;;;;;1.40;1.30;;;16.40;90.40;;;;;;5091347;28;20169;-15
2022/01/24 00:58:26;;;;;;;1.67;1.40;;;16.40;90.40;;;;;;5092845;28;20169;-15
2022/01/24 01:00:51;;;;;;;1.30;1.20;;;16.40;90.40;;;;;;5092475;28;20423;-16
2022/01/24 01:03:19;;;;;;;1.20;1.10;;;16.40;90.40;;;;;;5093446;28;20197;-16
2022/01/24 01:06:01;;;;;;;1.63;1.37;;;16.40;90.40;;;;;;5094250;28;20170;-15
2022/01/24 01:19:27;;;;;;;0.90;0.90;;;16.40;90.40;;;;;;5090677;28;20179;-14
2022/01/24 01:21:53;;;;;;;4.07;1.37;;;16.40;90.40;;;;;;5073001;28;20187;-15
2022/01/24 01:24:20;;;;;;;1.30;1.20;;;16.40;90.40;;;;;;5092345;28;20198;-19
2022/01/24 01:26:59;;;;;;;1.83;1.30;;;16.40;90.40;;;;;;5076366;28;20172;-16
2022/01/24 01:29:30;;;;;;;1.47;1.37;;;16.30;90.30;;;;;;5092383;28;20301;-16
2022/01/24 01:32:16;;;;;;;1.20;1.10;;;16.40;90.30;;;;;;5092186;28;20643;-16
2022/01/24 01:56:07;;;;;;;1.40;1.30;;;16.30;90.20;;;;;;5093354;28;20167;-15
2022/01/24 01:58:32;;;;;;;1.20;1.10;;;16.30;90.10;;;;;;5074760;28;20175;-14
2022/01/24 02:01:00;;;;;;;1.30;1.20;;;16.30;90.10;;;;;;5073900;28;20193;-15
2022/01/24 02:03:28;;;;;;;1.03;0.93;;;16.30;90.10;;;;;;5074350;28;20179;-15
2022/01/24 02:05:54;;;;;;;0.93;0.87;;;16.30;90.00;;;;;;5074597;28;20176;-15
2022/01/24 02:08:26;;;;;;;0.80;0.80;;;16.30;90.00;;;;;;5094391;28;20186;-14
2022/01/24 02:10:52;;;;;;;1.20;1.10;;;16.30;90.10;;;;;;5079174;28;20271;-14
2022/01/24 02:13:18;;;;;;;1.20;1.10;;;16.30;90.10;;;;;;5096487;28;20575;-15
2022/01/24 02:18:32;;;;;;;1.20;1.07;;;16.30;90.00;;;;;;5097058;28;20486;-17
2022/01/24 02:21:24;;;;;;;1.03;1.00;;;16.30;90.00;;;;;;5079096;28;20561;-14
2022/01/24 02:23:50;;;;;;;1.53;1.10;;;16.30;90.00;;;;;;5078458;28;20377;-14
2022/01/24 02:26:20;;;;;;;1.20;1.00;;;16.30;89.80;;;;;;5077132;28;20591;-15
2022/01/24 02:31:52;;;;;;;0.90;0.90;;;16.30;89.60;;;;;;4993055;28;20210;-15
2022/01/24 02:34:41;;;;;;;1.10;1.00;;;16.30;89.50;;;;;;5057945;28;20187;-15
2022/01/24 02:37:13;;;;;;;1.20;1.10;;;16.30;89.20;;;;;;5071627;28;20195;-14
2022/01/24 02:53:04;;;;;;;0.80;0.80;;;16.40;88.30;;;;;;5095680;28;20203;-15
2022/01/24 02:55:32;;;;;;;0.83;0.83;;;16.40;88.10;;;;;;5077639;28;20186;-17
2022/01/24 02:57:58;;;;;;;0.87;0.87;;;16.40;87.90;;;;;;5078892;28;20177;-15
2022/01/24 03:00:24;;;;;;;0.90;0.90;;;16.50;87.90;;;;;;5096301;28;20183;-15
2022/01/24 03:02:49;;;;;;;1.00;1.00;;;16.50;87.80;;;;;;5078734;28;20213;-14
2022/01/24 03:05:15;;;;;;;1.00;0.90;;;16.40;87.60;;;;;;5096299;28;20175;-15
2022/01/24 03:07:41;;;;;;;0.70;0.70;;;16.50;87.60;;;;;;5077555;28;20179;-15
2022/01/24 03:10:13;;;;;;;1.03;0.93;;;16.50;87.50;;;;;;5095394;28;20178;-16
2022/01/24 03:12:43;;;;;;;1.00;0.90;;;16.50;87.40;;;;;;5095892;28;20494;-15
2022/01/24 03:15:10;;;;;;;0.90;0.90;;;16.50;87.30;;;;;;5077662;28;20350;-16
2022/01/24 03:17:36;;;;;;;1.20;1.10;;;16.50;87.10;;;;;;5096034;28;20172;-14
2022/01/24 03:20:01;;;;;;;0.80;0.80;;;16.50;87.00;;;;;;5077900;28;20179;-16
2022/01/24 03:22:27;;;;;;;1.80;0.80;;;16.50;86.90;;;;;;5096154;28;20168;-17
2022/01/24 03:24:53;;;;;;;0.80;0.80;;;16.50;86.70;;;;;;5077381;28;20272;-14
2022/01/24 03:27:21;;;;;;;1.10;1.00;;;16.50;86.60;;;;;;5077982;28;20225;-15
2022/01/24 03:29:46;;;;;;;0.80;0.80;;;16.60;86.50;;;;;;5078291;28;20330;-14
2022/01/24 03:32:12;;;;;;;0.97;0.80;;;16.60;86.40;;;;;;5096703;28;20573;-14
2022/01/24 03:34:38;;;;;;;1.03;1.00;;;16.50;86.40;;;;;;5078024;28;20173;-16
2022/01/24 03:37:04;;;;;;;1.00;1.00;;;16.50;86.40;;;;;;5078226;28;20572;-15
2022/01/24 03:39:29;;;;;;;0.90;0.90;;;16.50;86.40;;;;;;5076856;28;20183;-17
2022/01/24 03:41:55;;;;;;;0.90;0.90;;;16.50;86.40;;;;;;5077648;28;20184;-14
2022/01/24 03:44:23;;;;;;;1.00;0.90;;;16.50;86.50;;;;;;5078307;28;20330;-14
2022/01/24 03:49:47;;;;;;;0.90;0.83;;;16.40;86.80;;;;;;5095865;28;20191;-14
2022/01/24 03:52:17;;;;;;;1.03;0.83;;;16.40;87.10;;;;;;5094706;28;20212;-15
2022/01/24 03:54:44;;;;;;;1.33;1.00;;;16.30;87.30;;;;;;5076883;28;20253;-16
2022/01/24 03:57:13;;;;;;;1.00;0.90;;;16.30;87.50;;;;;;5095433;28;20389;-14
2022/01/24 03:59:39;;;;;;;0.73;0.73;;;16.30;87.70;;;;;;5077089;28;20175;-14
2022/01/24 04:02:05;;;;;;;1.10;1.00;;;16.20;87.80;;;;;;5094266;28;20248;-17
2022/01/24 04:04:31;;;;;;;0.80;0.80;;;16.20;87.80;;;;;;5095802;28;20171;-14
2022/01/24 04:06:57;;;;;;;0.83;0.83;;;16.40;86.70;;;;;;5095178;28;20266;-15
2022/01/24 04:09:23;;;;;;;0.90;0.90;;;16.70;84.90;;;;;;5077514;28;20265;-16
2022/01/24 04:11:54;;;;;;;0.90;0.80;;;17.20;81.20;;;;;;5095781;28;20290;-14
2022/01/24 04:22:15;;;;;;;0.90;0.70;;;19.60;60.00;;;;;;5095171;28;20261;-15
2022/01/24 04:24:42;;;;;;;0.90;0.90;;;19.80;58.70;;;;;;5094575;28;20475;-14
2022/01/24 04:27:09;;;;;;;0.80;0.80;;;19.80;58.30;;;;;;5077192;28;20184;-14
2022/01/24 04:29:36;;;;;;;0.80;0.80;;;19.70;58.40;;;;;;5093053;28;20272;-15
2022/01/24 04:32:03;;;;;;;0.70;0.70;;;19.40;59.20;;;;;;5094356;28;20290;-15
2022/01/24 04:34:28;;;;;;;0.70;0.70;;;19.20;60.30;;;;;;5093449;28;20182;-15
2022/01/24 04:36:55;;;;;;;1.47;0.80;;;18.90;61.60;;;;;;5093928;28;20173;-15
2022/01/24 04:39:21;;;;;;;0.83;0.80;;;18.60;63.60;;;;;;5094252;28;20619;-16
2022/01/24 04:41:50;;;;;;;0.80;0.80;;;18.40;65.70;;;;;;5077342;28;20176;-16
2022/01/24 04:54:44;;;;;;;1.30;0.70;;;17.40;74.50;;;;;;5093876;28;20222;-15
2022/01/24 04:57:13;;;;;;;0.80;0.80;;;17.30;75.80;;;;;;5077078;28;20512;-14
2022/01/24 04:59:40;;;;;;;0.80;0.80;;;17.20;76.90;;;;;;5093173;28;20176;-17
2022/01/24 05:02:07;;;;;;;0.70;0.70;;;17.10;78.30;;;;;;5093713;28;20564;-15
2022/01/24 05:04:34;;;;;;;0.90;0.83;;;17.00;78.40;;;;;;5076504;28;20471;-16
2022/01/24 05:07:00;;;;;;;0.80;0.80;;;16.90;79.10;;;;;;5093597;28;20177;-15
2022/01/24 05:09:28;;;;;;;0.60;0.60;;;16.90;79.80;;;;;;5093176;28;20192;-14
2022/01/24 05:23:30;;;;;;;0.67;0.67;;;16.60;82.00;;;;;;5091716;28;20185;-14
2022/01/24 05:25:58;;;;;;;0.80;0.80;;;16.60;82.50;;;;;;5075141;28;20201;-15
2022/01/24 05:28:25;;;;;;;0.70;0.70;;;16.50;82.80;;;;;;5074203;28;20168;-15
2022/01/24 05:30:51;;;;;;;0.67;0.67;;;16.50;83.00;;;;;;5092256;28;20167;-14
2022/01/24 05:33:17;;;;;;;0.60;0.60;;;16.40;83.30;;;;;;5091959;28;20604;-14
2022/01/24 05:35:45;;;;;;;0.70;0.70;;;16.40;83.70;;;;;;5072997;28;20321;-14
2022/01/24 05:38:11;;;;;;;0.77;0.70;;;16.40;84.10;;;;;;5090666;28;20198;-15
2022/01/24 05:40:37;;;;;;;1.07;0.70;;;16.40;84.10;;;;;;5072346;28;20211;-14
2022/01/24 05:43:03;;;;;;;0.70;0.70;;;16.40;83.70;;;;;;5073877;28;20176;-15
2022/01/24 05:45:29;;;;;;;0.80;0.80;;;16.50;82.80;;;;;;5073388;28;20577;-14
2022/01/24 05:47:55;;;;;;;0.73;0.73;;;16.80;81.80;;;;;;5073407;28;20238;-16
2022/01/24 05:50:21;;;;;;;0.60;0.60;;;17.30;76.80;;;;;;5090267;28;20177;-14
2022/01/24 05:52:47;;;;;;;1.33;0.67;;;18.00;70.70;;;;;;5073455;28;20238;-14
2022/01/24 05:55:13;;;;;;;0.57;0.57;;;18.40;66.80;;;;;;5056320;28;20233;-15
2022/01/24 05:57:38;;;;;;;0.70;0.70;;;18.70;64.30;;;;;;5090601;28;20257;-15
2022/01/24 06:00:10;;;;;;;0.70;0.70;;;18.90;62.00;;;;;;5072190;28;20611;-14
2022/01/24 06:02:35;;;;;;;0.70;0.70;;;19.00;61.70;;;;;;5072082;28;20188;-14
2022/01/24 06:05:01;;;;;;;0.83;0.60;;;19.10;60.40;;;;;;5089166;28;20180;-15
2022/01/24 06:07:27;;;;;;;0.67;0.67;;;19.10;60.10;;;;;;5070295;28;20188;-14
2022/01/24 06:09:53;;;;;;;0.70;0.70;;;19.00;60.10;;;;;;5088985;28;20547;-15
2022/01/24 06:12:18;;;;;;;0.80;0.80;;;18.80;61.30;;;;;;5089329;28;20263;-15
2022/01/24 06:14:44;;;;;;;0.70;0.70;;;18.60;62.70;;;;;;5088673;28;20183;-14
2022/01/24 06:17:10;;;;;;;0.60;0.60;;;18.30;64.70;;;;;;5089511;28;20192;-15
2022/01/24 06:19:36;;;;;;;0.53;0.53;;;18.10;66.30;;;;;;5070684;28;20167;-15
2022/01/24 06:22:04;;;;;;;0.60;0.60;;;17.90;68.10;;;;;;5087731;28;20552;-14
2022/01/24 06:24:30;;;;;;;0.53;0.50;;;17.70;70.10;;;;;;5088520;28;20195;-15
2022/01/24 06:26:55;;;;;;;1.37;0.80;;;17.50;71.70;;;;;;5088030;28;20182;-14
2022/01/24 06:29:21;;;;;;;0.57;0.57;;;17.30;73.30;;;;;;5088132;28;20179;-14
2022/01/24 06:31:47;;;;;;;1.10;0.70;;;17.20;74.60;;;;;;5071766;28;20366;-15
2022/01/24 06:34:13;;;;;;;0.70;0.70;;;17.10;75.70;;;;;;5068133;28;20548;-14
2022/01/24 06:36:38;;;;;;;0.60;0.60;;;17.00;76.70;;;;;;5067549;28;20168;-14
2022/01/24 06:39:06;;;;;;;0.70;0.70;;;16.90;77.50;;;;;;5068240;28;20555;-14
2022/01/24 06:41:34;;;;;;;0.70;0.70;;;16.80;78.20;;;;;;5085811;28;20542;-16
2022/01/24 06:44:01;;;;;;;0.70;0.70;;;16.80;79.00;;;;;;5086737;28;20806;-15
2022/01/24 06:46:27;;;;;;;0.97;0.60;;;16.70;79.70;;;;;;5086034;28;20165;-15
2022/01/24 06:48:53;;;;;;;1.17;0.70;;;16.70;80.50;;;;;;5067938;28;20191;-16
2022/01/24 06:51:21;;;;;;;1.00;0.90;;;16.60;81.00;;;;;;5085828;28;20544;-15
2022/01/24 06:53:48;;;;;;;0.80;0.80;;;16.60;81.60;;;;;;5070407;28;20634;-15
2022/01/24 06:56:14;;;;;;;0.70;0.60;;;16.50;82.00;;;;;;5089993;28;20202;-16
2022/01/24 06:58:40;;;;;;;0.70;0.70;;;16.50;82.50;;;;;;5071952;28;20186;-14
2022/01/24 07:01:06;;;;;;;1.93;0.70;;;16.50;83.00;;;;;;5090610;28;20429;-14
2022/01/24 07:03:33;;;;;;;1.50;0.63;;;16.50;83.50;;;;;;5073020;28;20245;-15
2022/01/24 07:05:59;;;;;;;1.50;0.70;;;16.40;83.90;;;;;;5090292;28;20190;-14
2022/01/24 07:08:25;;;;;;;0.97;0.70;;;16.40;84.10;;;;;;5073958;28;20172;-15
2022/01/24 07:10:51;;;;;;;2.17;0.90;;;16.40;84.40;;;;;;5074204;28;20230;-18
2022/01/24 07:13:20;;;;;;;1.17;0.70;;;16.40;84.40;;;;;;5073720;28;20227;-14
2022/01/24 07:15:50;;;;;;;0.70;0.60;;;16.40;84.10;;;;;;5072749;28;20165;-14
2022/01/24 07:19:03;;;;;;;0.93;0.70;;;16.60;83.50;;;;;;5091464;28;20163;-15
2022/01/24 07:21:05;;;;;;;1.93;0.80;;;16.60;82.90;;;;;;5078233;28;20192;-15
2022/01/24 07:23:31;;;;;;;2.07;0.90;;;16.70;82.40;;;;;;5073102;28;20617;-14
2022/01/24 07:25:57;;;;;;;1.97;0.80;;;16.80;81.80;;;;;;5073011;28;20173;-16
2022/01/24 07:28:23;;;;;;;1.20;0.80;;;16.80;81.20;;;;;;5090310;28;20168;-16
2022/01/24 07:30:48;;;;;;;2.00;0.80;;;16.80;81.40;;;;;;5073624;28;20329;-14
2022/01/24 07:33:15;;;;;;;2.97;0.80;;;16.80;81.30;;;;;;5092016;28;20199;-14
2022/01/24 07:35:45;;;;;;;1.13;0.60;;;16.80;81.00;;;;;;5072588;28;20172;-15
2022/01/24 07:38:11;;;;;;;1.23;0.73;;;16.80;80.90;;;;;;5072308;28;20169;-16
2022/01/24 07:40:41;;;;;;;2.07;0.70;;;16.80;80.80;;;;;;5072969;28;20177;-16
2022/01/24 07:43:12;;;;;;;1.80;0.70;;;16.80;81.10;;;;;;5073021;28;20170;-18
2022/01/24 07:45:40;;;;;;;1.20;0.73;;;16.80;81.10;;;;;;5072935;28;20232;-16
2022/01/24 07:48:06;;;;;;;1.80;0.70;;;16.80;81.70;;;;;;5091520;28;20163;-16
2022/01/24 07:50:35;;;;;;;0.87;0.77;;;16.70;81.90;;;;;;5071835;28;20207;-14
2022/01/24 07:53:01;;;;;;;1.83;0.90;;;16.70;82.40;;;;;;5072494;28;20240;-16
2022/01/24 07:55:27;;;;;;;4.10;0.80;;;16.70;82.70;;;;;;5090764;28;20315;-15
2022/01/24 07:57:53;;;;;;;1.73;0.97;;;16.60;83.00;;;;;;5072377;28;20165;-14
2022/01/24 08:00:19;;;;;;;1.73;0.77;;;16.60;83.20;;;;;;5089438;28;20474;-16
2022/01/24 08:02:45;;;;;;;2.97;1.03;;;16.60;83.60;;;;;;5089799;28;20414;-15
2022/01/24 08:05:12;;;;;;;0.97;0.80;;;16.60;83.90;;;;;;5071887;28;20639;-14
2022/01/24 08:07:38;;;;;;;0.53;0.53;;;16.60;84.10;;;;;;5090380;28;20184;-16
2022/01/24 08:10:07;;;;;;;1.37;0.80;;;16.50;84.10;;;;;;5089196;28;20258;-14
2022/01/24 08:12:34;;;;;;;0.80;0.60;;;16.50;84.20;;;;;;5088752;28;20202;-17
2022/01/24 08:15:02;;;;;;;2.00;0.67;;;16.50;84.40;;;;;;5089826;28;20454;-14
2022/01/24 08:17:28;;;;;;;1.93;0.67;;;16.50;84.30;;;;;;5070638;28;20180;-16
2022/01/24 08:19:54;;;;;;;2.77;0.80;;;16.50;84.20;;;;;;5089599;28;20265;-14
2022/01/24 08:22:20;;;;;;;0.83;0.60;;;16.60;84.30;;;;;;5090043;28;20545;-14
2022/01/24 08:24:46;;;;;;;2.43;0.70;;;16.50;84.00;;;;;;5069974;28;20185;-14
2022/01/24 08:27:15;;;;;;;0.93;0.70;;;16.50;83.90;;;;;;5072039;28;20171;-14
2022/01/24 08:29:43;;;;;;;1.20;0.60;;;16.50;83.80;;;;;;5089538;28;20176;-14
2022/01/24 08:32:09;;;;;;;1.23;0.80;;;16.50;84.00;;;;;;5070210;28;20273;-16
2022/01/24 08:34:35;;;;;;;0.60;0.60;;;16.50;84.20;;;;;;5072038;28;20279;-14
2022/01/24 08:37:01;;;;;;;0.93;0.70;;;16.40;84.90;;;;;;5090103;28;20262;-17
2022/01/24 08:39:27;;;;;;;2.80;0.90;;;16.40;84.40;;;;;;5090188;28;20167;-15
2022/01/24 08:45:41;;;;;;;0.93;0.87;;;16.30;84.80;;;;;;5088808;28;20207;-14
2022/01/24 08:47:07;;;;;;;2.57;0.90;;;16.30;85.50;;;;;;5089903;28;20270;-15
2022/01/24 08:49:33;;;;;;;1.00;0.70;;;16.30;84.70;;;;;;5090891;28;20526;-15
2022/01/24 08:52:00;;;;;;;0.80;0.70;;;16.30;84.70;;;;;;5071642;28;20202;-15
2022/01/24 08:54:26;;;;;;;1.00;0.90;;;16.30;84.70;;;;;;5070890;28;20460;-16
2022/01/24 08:56:53;;;;;;;0.80;0.70;;;16.30;84.80;;;;;;5070812;28;20500;-16
2022/01/24 08:59:21;;;;;;;1.63;0.90;;;16.30;84.90;;;;;;5071513;28;20294;-16
2022/01/24 09:01:47;;;;;;;1.10;0.73;;;16.30;84.80;;;;;;5070785;28;20188;-15
2022/01/24 09:04:14;;;;;;;1.60;0.77;;;16.20;84.80;;;;;;5069688;28;20177;-15
2022/01/24 09:06:40;;;;;;;1.43;0.90;;;16.20;84.70;;;;;;5088729;28;20176;-16
2022/01/24 09:09:06;;;;;;;1.53;0.93;;;16.30;84.40;;;;;;5088325;28;20170;-15
2022/01/24 09:11:34;;;;;;;0.97;0.73;;;16.40;83.30;;;;;;5088088;28;20442;-15
2022/01/24 09:14:01;;;;;;;0.87;0.80;;;16.60;82.00;;;;;;5070160;28;20176;-15
2022/01/24 09:16:27;;;;;;;0.60;0.60;;;16.80;80.00;;;;;;5087172;28;20208;-16
2022/01/24 09:18:54;;;;;;;0.70;0.70;;;17.10;77.70;;;;;;5089314;28;20647;-16
2022/01/24 09:21:21;;;;;;;0.70;0.70;;;17.40;74.80;;;;;;5070155;28;20264;-15
2022/01/24 09:23:47;;;;;;;0.70;0.70;;;17.70;71.80;;;;;;5070290;28;20171;-16
2022/01/24 09:26:13;;;;;;;1.90;0.80;;;17.90;69.50;;;;;;5068958;28;20262;-16
2022/01/24 09:28:39;;;;;;;0.80;0.80;;;18.00;68.30;;;;;;5088129;28;20252;-14
2022/01/24 09:31:06;;;;;;;1.43;0.80;;;18.00;67.80;;;;;;5070697;28;20665;-15
2022/01/24 09:33:32;;;;;;;1.73;0.80;;;18.00;67.90;;;;;;5087667;28;20196;-15
2022/01/24 09:36:00;;;;;;;0.70;0.67;;;17.80;68.70;;;;;;5070347;28;20332;-14
2022/01/24 09:38:29;;;;;;;1.20;0.80;;;17.70;69.60;;;;;;5069833;28;20394;-15
2022/01/24 09:40:57;;;;;;;1.67;0.90;;;17.60;70.80;;;;;;5087739;28;20265;-15
2022/01/24 09:43:23;;;;;;;1.20;0.70;;;17.40;71.90;;;;;;5069991;28;20733;-14
2022/01/24 09:45:49;;;;;;;1.20;0.73;;;17.30;73.10;;;;;;5087943;28;20169;-16
2022/01/24 09:48:16;;;;;;;0.60;0.60;;;17.20;74.00;;;;;;5069539;28;20176;-14
2022/01/24 09:50:45;;;;;;;0.90;0.63;;;17.10;75.00;;;;;;5057868;28;20167;-14
2022/01/24 09:53:13;;;;;;;0.60;0.60;;;17.00;75.60;;;;;;5057658;28;20221;-14
2022/01/24 09:55:39;;;;;;;1.60;0.90;;;16.90;76.20;;;;;;5050516;28;20172;-15
2022/01/24 09:58:05;;;;;;;1.47;0.80;;;16.80;76.70;;;;;;5050084;28;20186;-14
2022/01/24 10:00:33;;;;;;;1.27;0.80;;;16.80;77.10;;;;;;5067783;28;20179;-16
2022/01/24 10:02:59;;;;;;;0.77;0.77;;;16.80;77.50;;;;;;5077683;28;20225;-14
2022/01/24 10:05:33;;;;;;;2.00;0.93;;;16.70;77.70;;;;;;5077558;28;20224;-15
2022/01/24 10:08:00;;;;;;;1.37;0.90;;;16.70;77.80;;;;;;5087413;28;20195;-15
2022/01/24 10:10:50;;;;;;;1.67;0.70;;;16.70;77.90;;;;;;5068841;28;20291;-15
2022/01/24 10:19:20;;;;;;;1.00;0.77;;;16.60;77.90;;;;;;5087110;28;20351;-14
2022/01/24 10:21:47;;;;;;;0.90;0.80;;;16.50;77.90;;;;;;5068074;28;20168;-14
2022/01/24 10:24:49;;;;;;;2.30;0.90;;;16.50;77.80;;;;;;5086568;28;20175;-15
2022/01/24 10:27:23;;;;;;;0.80;0.80;;;16.50;77.60;;;;;;5069906;28;20179;-14
2022/01/24 10:30:10;;;;;;;1.60;1.00;;;16.50;76.70;;;;;;5072979;28;20172;-14
2022/01/24 10:32:51;;;;;;;1.10;1.00;;;16.50;76.50;;;;;;5089592;28;20199;-15
2022/01/24 10:35:38;;;;;;;1.20;0.80;;;16.50;76.50;;;;;;5071093;28;20273;-15
2022/01/24 10:38:33;;;;;;;1.00;0.93;;;16.40;76.70;;;;;;5071572;28;20168;-14
2022/01/24 10:41:21;;;;;;;1.93;1.00;;;16.40;77.10;;;;;;5070731;28;20171;-15
2022/01/24 10:43:48;;;;;;;1.33;1.10;;;16.40;77.40;;;;;;5089978;28;20232;-14
2022/01/24 10:46:20;;;;;;;1.33;0.97;;;16.50;77.40;;;;;;5073702;28;20834;-14
2022/01/24 10:49:15;;;;;;;2.20;1.00;;;16.60;76.60;;;;;;5098191;28;20167;-15
2022/01/24 10:51:46;;;;;;;1.70;0.93;;;17.00;74.00;;;;;;5091638;28;20183;-16
2022/01/24 10:54:27;;;;;;;2.93;1.00;;;17.30;71.50;;;;;;5071821;28;20167;-14
2022/01/24 10:56:53;;;;;;;2.20;0.90;;;17.50;68.90;;;;;;5089894;28;20456;-14
2022/01/24 10:59:22;;;;;;;0.97;0.90;;;17.90;66.20;;;;;;5072313;28;20174;-15
2022/01/24 11:01:55;;;;;;;1.00;0.90;;;18.30;63.50;;;;;;5071050;28;20485;-14
2022/01/24 11:04:26;;;;;;;1.63;1.00;;;18.50;61.40;;;;;;5090113;28;20172;-15
2022/01/24 11:06:57;;;;;;;1.83;0.80;;;18.50;60.80;;;;;;5069569;28;20168;-16
2022/01/24 11:09:24;;;;;;;1.23;0.90;;;18.50;60.50;;;;;;5070270;28;20405;-15
2022/01/24 11:11:55;;;;;;;2.47;1.00;;;18.40;60.80;;;;;;5069412;28;20197;-17
2022/01/24 11:14:23;;;;;;;1.27;0.93;;;18.20;62.60;;;;;;5068321;28;20570;-14
2022/01/24 11:16:52;;;;;;;2.10;0.97;;;17.90;63.60;;;;;;5069660;28;20523;-14
2022/01/24 11:19:46;;;;;;;3.70;1.00;;;17.80;64.60;;;;;;5052987;28;20170;-14
2022/01/24 11:22:19;;;;;;;4.77;1.20;;;17.60;65.60;;;;;;5069344;28;20181;-15
2022/01/24 11:24:55;;;;;;;2.30;0.90;;;17.60;66.60;;;;;;5070126;28;20449;-15
2022/01/24 11:27:21;;;;;;;2.63;1.03;;;17.50;67.40;;;;;;5070286;28;20202;-16
2022/01/24 11:29:51;;;;;;;2.80;1.00;;;17.40;68.00;;;;;;5052408;28;20205;-14
2022/01/24 11:32:30;;;;;;;3.47;1.10;;;17.30;69.00;;;;;;5052681;28;20611;-15
2022/01/24 11:34:57;;;;;;;1.10;1.00;;;17.30;70.00;;;;;;5051666;28;20551;-18
2022/01/24 11:37:40;;;;;;;1.83;1.00;;;17.20;71.10;;;;;;5050914;28;20422;-16
2022/01/24 11:40:08;;;;;;;1.00;0.90;;;17.20;72.40;;;;;;5049984;28;20587;-16
2022/01/24 11:42:36;;;;;;;3.10;1.03;;;17.10;73.50;;;;;;5087004;28;20189;-16
2022/01/24 11:45:10;;;;;;;2.87;1.10;;;17.10;74.20;;;;;;5079896;28;20218;-14
2022/01/24 11:47:36;;;;;;;3.70;1.43;;;17.10;74.90;;;;;;5075723;28;20282;-16
2022/01/24 11:50:26;;;;;;;2.60;1.50;;;17.10;77.70;;;;;;5090394;28;20172;-14
2022/01/24 11:52:54;;;;;;;7.60;2.40;;;17.10;79.60;;;;;;5087053;28;20384;-15
2022/01/24 11:55:40;;;;;;;7.17;2.20;;;17.10;81.80;;;;;;5088945;28;20416;-18
2022/01/24 11:58:08;;;;;;;7.70;2.43;;;17.10;82.50;;;;;;5071185;28;20243;-16
2022/01/24 12:00:39;;;;;;;6.37;2.20;;;17.10;82.50;;;;;;5088608;28;20167;-15
2022/01/24 12:03:23;;;;;;;13.33;3.03;;;17.10;82.80;;;;;;5070373;28;20239;-16
2022/01/24 12:05:53;;;;;;;10.70;2.83;;;17.10;84.20;;;;;;5089194;28;20419;-16
2022/01/24 12:08:43;;;;;;;9.17;2.73;;;17.10;85.90;;;;;;5071196;28;20242;-15
2022/01/24 12:11:14;;;;;;;10.33;2.33;;;17.10;87.80;;;;;;5087875;28;20504;-15
2022/01/24 12:13:46;;;;;;;10.63;2.80;;;17.00;87.60;;;;;;5088254;28;20613;-15
2022/01/24 12:16:15;;;;;;;11.77;2.93;;;17.00;89.00;;;;;;5070545;28;20207;-14
2022/01/24 12:18:42;;;;;;;9.97;2.60;;;17.00;89.50;;;;;;5071246;28;20219;-16
2022/01/24 12:21:10;;;;;;;10.03;2.63;;;17.00;89.30;;;;;;5070315;28;20172;-16
2022/01/24 12:23:44;;;;;;;10.50;2.30;;;17.00;88.80;;;;;;5070353;28;20172;-15
2022/01/24 12:26:13;;;;;;;8.97;2.67;;;17.00;88.60;;;;;;5069342;28;20261;-14
2022/01/24 12:28:42;;;;;;;5.83;2.20;;;17.00;88.20;;;;;;5089179;28;20560;-15
2022/01/24 12:31:21;;;;;;;6.63;2.30;;;17.00;87.60;;;;;;5070584;28;20174;-17
2022/01/24 12:34:00;;;;;;;8.20;2.00;;;17.00;87.40;;;;;;5088112;28;20200;-15
2022/01/24 12:36:47;;;;;;;5.17;2.00;;;17.00;87.20;;;;;;5087717;28;20179;-14
2022/01/24 12:39:34;;;;;;;8.30;2.13;;;17.00;87.10;;;;;;5068662;28;20269;-14
2022/01/24 12:42:11;;;;;;;5.17;2.10;;;17.00;87.20;;;;;;5084942;28;20164;-14
2022/01/24 12:47:16;;;;;;;4.80;1.80;;;17.00;86.50;;;;;;5084747;28;20175;-16
2022/01/24 12:49:44;;;;;;;5.03;1.93;;;17.10;85.90;;;;;;5069881;28;20183;-15
2022/01/24 12:52:13;;;;;;;3.23;1.73;;;17.20;84.10;;;;;;5087449;28;20195;-15
2022/01/24 12:54:42;;;;;;;5.33;2.13;;;17.40;82.60;;;;;;5088142;28;20166;-14
2022/01/24 12:57:14;;;;;;;2.83;1.80;;;17.50;81.20;;;;;;5070022;28;20165;-15
2022/01/24 12:59:52;;;;;;;5.07;1.97;;;17.70;78.90;;;;;;5089065;28;20241;-14
2022/01/24 13:02:26;;;;;;;3.20;2.00;;;18.00;76.30;;;;;;5087119;28;20215;-14
2022/01/24 13:04:52;;;;;;;4.43;1.60;;;18.10;74.80;;;;;;5070071;28;20177;-14
2022/01/24 13:07:20;;;;;;;4.37;2.07;;;18.10;73.90;;;;;;5070732;28;20208;-14
2022/01/24 13:13:12;;;;;;;3.40;1.73;;;17.90;73.90;;;;;;5089176;28;20613;-14
2022/01/24 13:21:30;;;;;;;4.17;1.80;;;17.70;75.00;;;;;;5022799;28;20172;-14
2022/01/24 13:24:00;;;;;;;4.27;1.80;;;17.60;75.30;;;;;;5054488;28;20178;-15
2022/01/24 13:26:26;;;;;;;3.40;1.60;;;17.50;75.80;;;;;;5085745;28;20350;-15
2022/01/24 13:29:03;;;;;;;3.47;1.60;;;17.50;76.20;;;;;;5085475;28;20583;-15
2022/01/24 13:31:29;;;;;;;3.40;1.50;;;17.40;76.70;;;;;;5068113;28;20283;-14
2022/01/24 13:33:57;;;;;;;2.67;1.50;;;17.40;77.20;;;;;;5068297;28;20195;-16
2022/01/24 13:36:23;;;;;;;2.70;1.60;;;17.40;77.60;;;;;;5069775;28;20193;-17
2022/01/24 13:38:50;;;;;;;3.30;1.53;;;17.30;78.00;;;;;;5087407;28;20180;-15
2022/01/24 13:41:23;;;;;;;4.03;2.00;;;17.30;78.40;;;;;;5069415;28;20238;-14
2022/01/24 13:44:00;;;;;;;3.80;1.53;;;17.30;78.80;;;;;;5063683;28;20177;-16
2022/01/24 13:46:41;;;;;;;3.80;1.50;;;17.30;79.20;;;;;;5070007;28;20175;-15
2022/01/24 13:49:12;;;;;;;4.97;1.67;;;17.20;79.50;;;;;;5087072;28;20177;-14
2022/01/24 13:51:52;;;;;;;3.23;1.23;;;17.20;79.60;;;;;;5069201;28;20178;-15
2022/01/24 13:54:28;;;;;;;4.57;1.70;;;17.20;79.80;;;;;;5069962;28;20690;-14
2022/01/24 13:56:59;;;;;;;2.83;1.30;;;17.20;79.90;;;;;;5086621;28;20689;-17
2022/01/24 13:59:29;;;;;;;3.40;1.60;;;17.20;80.10;;;;;;5087579;28;20228;-14
2022/01/24 14:01:55;;;;;;;4.67;1.70;;;17.10;80.20;;;;;;5087739;28;20197;-14
2022/01/24 14:04:36;;;;;;;2.57;1.50;;;17.10;80.30;;;;;;5073476;28;20176;-16
2022/01/24 14:07:06;;;;;;;3.50;1.53;;;17.10;80.40;;;;;;5091433;28;20646;-14
2022/01/24 14:09:36;;;;;;;3.23;2.20;;;17.10;80.60;;;;;;5091773;28;20180;-14
2022/01/24 14:12:03;;;;;;;2.13;1.17;;;17.10;80.70;;;;;;5073929;28;20300;-14
2022/01/24 14:14:53;;;;;;;3.10;1.37;;;17.00;80.80;;;;;;5073299;28;20316;-14
2022/01/24 14:17:30;;;;;;;3.47;1.40;;;17.00;81.00;;;;;;5091063;28;20389;-14
2022/01/24 14:19:59;;;;;;;4.40;1.20;;;17.00;81.00;;;;;;5090906;28;20494;-16
2022/01/24 14:22:38;;;;;;;2.63;1.43;;;17.00;81.00;;;;;;5089102;28;20465;-16
2022/01/24 14:25:04;;;;;;;2.73;1.63;;;17.00;81.10;;;;;;5074485;28;20180;-16
2022/01/24 14:27:40;;;;;;;3.47;1.33;;;17.00;81.30;;;;;;5090626;28;20174;-16
2022/01/24 14:30:14;;;;;;;2.73;1.50;;;17.00;81.40;;;;;;5071511;28;20171;-15
2022/01/24 14:32:58;;;;;;;3.20;1.40;;;17.00;81.40;;;;;;5089514;28;20270;-14
2022/01/24 14:35:24;;;;;;;3.63;1.30;;;17.00;81.60;;;;;;5088418;28;20203;-15
2022/01/24 14:37:55;;;;;;;2.90;1.47;;;17.00;81.90;;;;;;5089724;28;20183;-16
2022/01/24 14:40:50;;;;;;;1.83;1.23;;;17.00;82.00;;;;;;5077514;28;20282;-16
2022/01/24 14:46:07;;;;;;;2.10;1.33;;;16.90;82.70;;;;;;5073266;28;20500;-14
2022/01/24 14:49:06;;;;;;;1.53;1.20;;;16.90;82.00;;;;;;5070173;28;20502;-14
2022/01/24 14:51:36;;;;;;;3.27;1.43;;;16.90;82.00;;;;;;5041329;28;20183;-15
2022/01/24 14:54:08;;;;;;;1.77;1.10;;;16.90;81.80;;;;;;5051499;28;20182;-14
2022/01/24 14:56:38;;;;;;;2.80;1.40;;;17.00;81.70;;;;;;5051597;28;20260;-14
2022/01/24 14:59:04;;;;;;;2.93;1.10;;;17.00;81.10;;;;;;5069366;28;20161;-15
2022/01/24 15:01:30;;;;;;;1.37;0.97;;;17.10;80.60;;;;;;5050960;28;20220;-19
2022/01/24 15:03:57;;;;;;;1.77;1.10;;;17.20;80.10;;;;;;5051424;28;20203;-14
2022/01/24 15:06:24;;;;;;;2.23;1.00;;;17.20;79.10;;;;;;5050035;28;20507;-15
2022/01/24 15:08:51;;;;;;;2.53;1.30;;;17.40;78.20;;;;;;5071490;28;20215;-16